• Join FlightAware (Why Join?)
  • Login
  • US Flag 
08:17PM EDT


 

Airport Tracker/Info


-or-


 

Live Flight TrackerFlight Track Log ✈ SWA245 ✈ 27-Sep-2013 ✈ KAUS - KOAK

Flight Track Log - Related Links

Times and Time Zones

All times are in EDT time to prevent confusion due to time zone crossing. See the SWA245 flight status page for this flight to view local times or setup timezone preferences in your user account.

Time Position Orientation Groundspeed Altitude Reporting Facility
EDT Latitude Longitude Course Direction KTS MPH feet Rate Location/Type
06:51PM 30.3053 -97.8633 306° West 283 326 7,800  Level Houston Center
06:52PM 30.3503 -97.9481 302° West 303 349 10,600 2,100 Climbing Houston Center
06:53PM 30.4025 -98.0472 301° West 350 403 12,200 2,220 Climbing Houston Center
06:54PM 30.4938 -98.3578 300° West  Level Estimated
06:54PM 30.4497 -98.1539 297° West 366 421 15,200  Level Houston Center
06:55PM 30.5434 -98.4728 337° Northwest  Level Estimated
06:55PM 30.4864 -98.2711 290° West 381 438 17,800  Level Houston Center
06:56PM 30.5250 -98.3917 290° West 393 452 20,200 2,160 Climbing Houston Center
06:57PM 30.5647 -98.5456 287° West 423 487 22,300 2,040 Climbing Houston Center
06:58PM 30.5864 -98.6842 280° West 432 497 24,500 1,980 Climbing Houston Center
06:59PM 30.6064 -98.8228 280° West 433 498 26,400 1,620 Climbing Houston Center
07:00PM 30.6258 -98.9658 279° West 442 509 27,900 1,320 Climbing Houston Center
07:01PM 30.6447 -99.1136 278° West 454 522 29,200 1,320 Climbing Houston Center
07:02PM 30.6650 -99.2767 278° West 468 539 30,700 1,680 Climbing Houston Center
07:03PM 30.6842 -99.4233 279° West 461 531 32,700 1,680 Climbing Houston Center
07:04PM 30.7311 -99.5561 292° West 451 519 34,200 1,380 Climbing Houston Center
07:05PM 30.8053 -99.6675 308° West 439 505 35,600 1,260 Climbing Houston Center
07:06PM 30.8797 -99.7858 306° West 449 517 36,900 1,140 Climbing Houston Center
07:07PM 30.9689 -99.9231 307° West 444 511 38,000 480 Climbing Houston Center
07:08PM 31.0428 -100.0408 306° West 446 513 38,000  Level Houston Center
07:09PM 31.1186 -100.1547 308° West 446 513 38,000  Level Houston Center
07:10PM 31.1919 -100.2717 306° West 450 518 38,000  Level Houston Center
07:11PM 31.2636 -100.3856 306° West 437 503 38,000  Level Houston Center
07:12PM 31.3711 -100.5039 317° Northwest 450 518 38,000  Level Houston Center
07:13PM 31.4556 -100.6058 314° West 439 505 38,000  Level Houston Center
07:14PM 31.5031 -100.6636 314° West 428 493 38,000  Level Fort Worth Center
07:15PM 31.5861 -100.7664 314° West 428 493 38,000  Level Fort Worth Center
07:16PM 31.6731 -100.8672 315° West 428 493 38,000  Level Fort Worth Center
07:17PM 31.7622 -100.9708 315° West 438 504 38,000  Level Fort Worth Center
07:18PM 31.8508 -101.0744 315° West 438 504 38,000  Level Fort Worth Center
07:19PM 31.9419 -101.1761 317° Northwest 443 510 38,000  Level Fort Worth Center
07:20PM 32.0264 -101.2775 315° West 448 516 38,000  Level Fort Worth Center
07:21PM 32.1172 -101.3794 316° Northwest 448 516 38,000  Level Fort Worth Center
07:22PM 32.2097 -101.4917 314° West 443 510 38,000  Level Fort Worth Center
07:23PM 32.3003 -101.5914 317° Northwest 443 510 38,000  Level Fort Worth Center
07:24PM 32.3908 -101.6917 317° Northwest 443 510 38,000  Level Fort Worth Center
07:25PM 32.4756 -101.7794 319° Northwest 443 510 38,000  Level Fort Worth Center
07:26PM 32.5661 -101.8772 318° Northwest 443 510 38,000  Level Fort Worth Center
07:27PM 32.6586 -101.9758 318° Northwest 443 510 38,000  Level Fort Worth Center
07:28PM 32.7508 -102.0767 317° Northwest 443 510 38,000  Level Fort Worth Center
07:29PM 32.8364 -102.1850 313° West 448 516 38,000  Level Fort Worth Center
07:30PM 32.9008 -102.3047 303° West 443 510 38,000  Level Fort Worth Center
07:31PM 32.9606 -102.4269 300° West 432 497 38,000  Level Fort Worth Center
07:32PM 33.0347 -102.5572 304° West 432 497 38,000  Level Fort Worth Center
07:33PM 33.0969 -102.6650 305° West 432 497 38,000  Level Fort Worth Center
07:34PM 33.1628 -102.7881 303° West 432 497 38,000  Level Fort Worth Center
07:35PM 33.2286 -102.9036 304° West 432 497 38,000  Level Fort Worth Center
07:36PM 33.3003 -103.0444 301° West 434 499 38,000  Level Albuquerque Center
07:37PM 33.3775 -103.1889 303° West 431 496 38,000  Level Albuquerque Center
07:38PM 33.4419 -103.3111 302° West 434 499 38,000  Level Albuquerque Center
07:39PM 33.5053 -103.4333 302° West 433 498 38,000  Level Albuquerque Center
07:40PM 33.5694 -103.5536 303° West 430 495 38,000  Level Albuquerque Center
07:41PM 33.6419 -103.6839 304° West 425 489 38,000  Level Albuquerque Center
07:42PM 33.7081 -103.8050 303° West 433 498 38,000  Level Albuquerque Center
07:44PM 33.7747 -103.9328 302° West 423 487 38,000  Level Albuquerque Center
07:45PM 33.8364 -104.0522 302° West 422 486 38,000  Level Albuquerque Center
07:46PM 33.8989 -104.1708 302° West 421 484 38,000  Level Albuquerque Center
07:47PM 33.9656 -104.2975 302° West 419 482 38,000  Level Albuquerque Center
07:48PM 34.0217 -104.4064 302° West 421 484 38,000  Level Albuquerque Center
07:49PM 34.0856 -104.5297 302° West 426 490 38,000  Level Albuquerque Center
07:50PM 34.1489 -104.6517 302° West 426 490 38,000  Level Albuquerque Center
07:51PM 34.2108 -104.7728 302° West 421 484 38,000  Level Albuquerque Center
07:52PM 34.2822 -104.9125 302° West 415 478 38,000  Level Albuquerque Center
07:53PM 34.3453 -105.0331 302° West 416 479 38,000  Level Albuquerque Center
07:54PM 34.4067 -105.1528 302° West 415 478 38,000  Level Albuquerque Center
07:55PM 34.4683 -105.2742 302° West 417 480 38,000  Level Albuquerque Center
07:56PM 34.5294 -105.3947 302° West 416 479 38,000  Level Albuquerque Center
07:57PM 34.5908 -105.5150 302° West 415 478 38,000  Level Albuquerque Center
07:58PM 34.6517 -105.6389 301° West 420 483 38,000  Level Albuquerque Center
07:59PM 34.7156 -105.7658 302° West 430 495 38,000  Level Albuquerque Center
08:00PM 34.7869 -105.9067 302° West 439 505 38,000  Level Albuquerque Center
08:01PM 34.8506 -106.0358 301° West 438 504 38,000  Level Albuquerque Center
08:02PM 34.9108 -106.1614 300° West 434 499 38,000  Level Albuquerque Center
08:03PM 34.9719 -106.2831 302° West 427 491 38,000  Level Albuquerque Center
08:04PM 35.0319 -106.4044 301° West 419 482 38,000  Level Albuquerque Center
08:05PM 35.0931 -106.5292 301° West 422 486 38,000  Level Albuquerque Center
08:06PM 35.1619 -106.6692 301° West 428 493 38,000  Level Albuquerque Center
08:07PM 35.2211 -106.7919 301° West 422 486 38,000  Level Albuquerque Center
08:08PM 35.2806 -106.9153 301° West 423 487 38,000  Level Albuquerque Center
08:09PM 35.3456 -107.0478 301° West 422 486 38,000  Level Albuquerque Center
08:10PM 35.4011 -107.1653 300° West 401 461 38,000  Level Albuquerque Center
08:11PM 35.4628 -107.2900 301° West 409 471 38,000  Level Albuquerque Center
08:12PM 35.5158 -107.4033 300° West 402 463 38,000  Level Albuquerque Center
08:13PM 35.5783 -107.5367 300° West 403 464 38,000  Level Albuquerque Center
08:14PM 35.6339 -107.6519 301° West 408 470 38,000  Level Albuquerque Center
08:15PM 35.6881 -107.7692 300° West 410 472 38,000  Level Albuquerque Center
08:16PM 35.7533 -107.9053 301° West 412 474 38,000  Level Albuquerque Center
08:17PM 35.8075 -108.0219 300° West 411 473 38,000  Level Albuquerque Center
08:18PM 35.8714 -108.1603 300° West 414 476 38,000  Level Albuquerque Center
08:19PM 35.9267 -108.2783 300° West 415 478 38,000  Level Albuquerque Center
08:21PM 35.9903 -108.4147 300° West 413 475 38,000  Level Albuquerque Center
08:22PM 36.0467 -108.5353 300° West 408 470 38,000  Level Albuquerque Center
08:23PM 36.1025 -108.6575 300° West 409 471 38,000  Level Albuquerque Center
08:24PM 36.1583 -108.7783 300° West 406 467 38,000  Level Albuquerque Center
08:25PM 36.2200 -108.9117 300° West 405 466 38,000  Level Albuquerque Center
08:26PM 36.2706 -109.0256 299° West 401 461 38,000  Level Albuquerque Center
08:27PM 36.3311 -109.1597 299° West 401 461 38,000  Level Albuquerque Center
08:28PM 36.4106 -109.3333 300° West 403 464 38,000  Level Denver Center
08:30PM 36.4807 -109.4982 299° West  Level FlightAware Approximate
08:30PM 36.5211 -109.5822 299° West 397 457 38,000  Level Denver Center
08:31PM 36.5733 -109.6981 299° West 401 461 38,900 780 Climbing Denver Center
08:33PM 36.6417 -109.8533 299° West 402 463 39,900 480 Climbing Denver Center
08:34PM 36.7022 -109.9883 299° West 401 461 40,000  Climbing Denver Center
08:35PM 36.7536 -110.1053 299° West 401 461 40,000  Level Denver Center
08:36PM 36.8064 -110.2250 299° West 399 459 40,000  Level Denver Center
08:37PM 36.8592 -110.3461 299° West 397 457 40,000  Level Denver Center
08:38PM 36.9214 -110.4894 299° West 394 453 40,000  Level Denver Center
08:39PM 36.9739 -110.6094 299° West 394 453 40,000  Level Denver Center
08:40PM 37.0258 -110.7281 299° West 391 450 40,000  Level Denver Center
08:41PM 37.0772 -110.8486 298° West 393 452 40,000  Level Denver Center
08:42PM 37.1286 -110.9678 298° West 391 450 40,000  Level Denver Center
08:43PM 37.1803 -111.0897 298° West 395 455 40,000  Level Denver Center
08:44PM 37.2425 -111.2369 298° West 399 459 40,000  Level Denver Center
08:45PM 37.2956 -111.3614 298° West 405 466 40,000  Level Denver Center
08:46PM 37.3489 -111.4875 298° West 409 471 40,000  Level Denver Center
08:47PM 37.4011 -111.6125 298° West 405 466 40,000  Level Denver Center
08:48PM 37.4547 -111.7381 298° West 408 470 40,000  Level Denver Center
08:49PM 37.5064 -111.8644 297° West 408 470 40,000  Level Denver Center
08:50PM 37.5689 -112.0139 298° West 404 465 40,000  Level Denver Center
08:51PM 37.6211 -112.1386 298° West 404 465 40,000  Level Denver Center
08:52PM 37.6733 -112.2639 298° West 406 467 40,000  Level Denver Center
08:53PM 37.7153 -112.3956 292° West 407 468 40,000  Level Salt Lake Center
08:54PM 37.7592 -112.5561 289° West 406 467 40,000  Level Salt Lake Center
08:55PM 37.7967 -112.6889 290° West 407 468 40,000  Level Salt Lake Center
08:56PM 37.8336 -112.8219 289° West 407 468 40,000  Level Salt Lake Center
08:57PM 37.8697 -112.9567 289° West 409 471 40,000  Level Salt Lake Center
08:58PM 37.9061 -113.0925 289° West 412 474 40,000  Level Salt Lake Center
08:59PM 37.9425 -113.2281 289° West 410 472 40,000  Level Salt Lake Center
09:00PM 37.9869 -113.3928 289° West 414 476 40,000  Level Salt Lake Center
09:01PM 38.0236 -113.5289 289° West 411 473 40,000  Level Salt Lake Center
09:02PM 38.0589 -113.6656 288° West 410 472 40,000  Level Salt Lake Center
09:03PM 38.0947 -113.8022 288° West 409 471 40,000  Level Salt Lake Center
09:05PM 38.1311 -113.9386 289° West 410 472 40,000  Level Salt Lake Center
09:06PM 38.1656 -114.0761 288° West 410 472 40,000  Level Salt Lake Center
09:07PM 38.1603 -114.2211 267° West 410 472 40,000  Level Salt Lake Center
09:08PM 38.1578 -114.3919 269° West 406 467 40,000  Level Salt Lake Center
09:09PM 38.1539 -114.5339 268° West 405 466 40,000  Level Salt Lake Center
09:10PM 38.1519 -114.6733 269° West 398 458 40,000  Level Salt Lake Center
09:11PM 38.1486 -114.8133 268° West 398 458 40,000  Level Salt Lake Center
09:12PM 38.1447 -114.9517 268° West 393 452 40,000  Level Salt Lake Center
09:13PM 38.1419 -115.0892 269° West 392 451 40,000  Level Salt Lake Center
09:14PM 38.1372 -115.2264 268° West 390 449 40,000  Level Salt Lake Center
09:15PM 38.1331 -115.3683 268° West 393 452 40,000  Level Salt Lake Center
09:16PM 38.1303 -115.5061 269° West 391 450 40,000  Level Salt Lake Center
09:17PM 38.1239 -115.6744 267° West 395 455 40,000  Level Salt Lake Center
09:18PM 38.1197 -115.8131 268° West 394 453 40,000  Level Salt Lake Center
09:19PM 38.1153 -115.9531 268° West 395 455 40,000  Level Salt Lake Center
09:20PM 38.1111 -116.0922 268° West 396 456 40,000  Level Salt Lake Center
09:21PM 38.1064 -116.2308 268° West 394 453 40,000  Level Salt Lake Center
09:22PM 38.1008 -116.3697 267° West 394 453 40,000  Level Salt Lake Center
09:23PM 38.0978 -116.4519 267° West 392 451 40,000  Level Oakland Center
09:24PM 38.0933 -116.5919 268° West 396 456 40,000  Level Oakland Center
09:25PM 38.0872 -116.7317 267° West 397 457 40,000  Level Oakland Center
09:26PM 38.0817 -116.8708 267° West 395 455 40,000  Level Oakland Center
09:27PM 38.0761 -117.0125 267° West 398 458 40,000  Level Oakland Center
09:28PM 38.0692 -117.1569 267° West 400 460 40,000  Level Oakland Center
09:29PM 38.0619 -117.3053 267° West 406 467 40,000  Level Oakland Center
09:30PM 38.0567 -117.4464 267° West 398 458 40,000  Level Oakland Center
09:31PM 38.0503 -117.5831 267° West 389 448 40,000  Level Oakland Center
09:32PM 38.0436 -117.7214 267° West 391 450 40,000  Level Oakland Center
09:33PM 38.0353 -117.8853 266° West 387 445 40,000  Level Oakland Center
09:34PM 38.0292 -118.0228 267° West 388 447 40,000  Level Oakland Center
09:35PM 38.0217 -118.1589 266° West 388 447 40,000  Level Oakland Center
09:36PM 38.0139 -118.2947 266° West 387 445 40,000  Level Oakland Center
09:37PM 38.0072 -118.4325 267° West 389 448 40,000  Level Oakland Center
09:38PM 37.9994 -118.5711 266° West 392 451 40,000  Level Oakland Center
09:39PM 37.9922 -118.7100 266° West 396 456 40,000  Level Oakland Center
09:40PM 37.9850 -118.8483 266° West 394 453 40,000  Level Oakland Center
09:41PM 37.9769 -118.9889 266° West 398 458 40,000  Level Oakland Center
09:42PM 37.9681 -119.1286 265° West 399 459 40,000  Level Oakland Center
09:43PM 37.9586 -119.2692 265° West 400 460 40,000 -540 Level Oakland Center
09:44PM 37.9472 -119.4375 265° West 399 459 39,000 -960 Descending Oakland Center
09:45PM 37.9372 -119.5750 265° West 395 455 38,100 -960 Descending Oakland Center
09:46PM 37.9281 -119.7106 265° West 388 447 37,100 -1,380 Descending Oakland Center
09:47PM 37.9200 -119.8461 266° West 386 444 35,300 -1,920 Descending Oakland Center
09:48PM 37.9128 -119.9786 266° West 381 438 33,300 -1,980 Descending Oakland Center
09:49PM 37.9031 -120.1064 265° West 369 425 31,300 -1,620 Descending Oakland Center
09:50PM 37.8942 -120.2358 265° West 368 423 30,000 -1,500 Descending Oakland Center
09:51PM 37.8858 -120.3614 265° West 361 415 28,300 -1,800 Descending Oakland Center
09:52PM 37.8781 -120.4844 265° West 353 406 26,400 -2,040 Descending Oakland Center
09:53PM 37.8686 -120.6058 264° West 349 402 24,200 -2,220 Descending Oakland Center
09:54PM 37.8594 -120.7497 265° West 344 396 22,000 -1,980 Descending Oakland Center
09:55PM 37.8400 -120.8639 258° West 333 383 20,200 -1,800 Descending Oakland Center
09:56PM 37.8167 -120.9333 247° West 336 387 19,100 -1,740 Descending Northern Cal TRACON
09:57PM 37.8000 -121.0333 258° West 338 389 17,500 -1,740 Descending Northern Cal TRACON
09:58PM 37.7667 -121.1500 250° West 346 398 15,700 -1,800 Descending Northern Cal TRACON
09:59PM 37.7500 -121.2667 260° West 320 368 14,000 -1,740 Descending Northern Cal TRACON
10:00PM 37.7167 -121.3667 247° West 310 357 12,300 -1,440 Descending Northern Cal TRACON
10:01PM 37.7000 -121.4833 260° West 302 348 11,000 -960 Descending Northern Cal TRACON
10:02PM 37.6833 -121.5833 258° West 297 342 10,400 -1,200 Descending Northern Cal TRACON
10:03PM 37.6500 -121.6667 243° Southwest 298 343 8,800 -1,800 Descending Northern Cal TRACON
10:04PM 37.6333 -121.7667 258° West 301 346 7,000 -1,320 Descending Northern Cal TRACON
10:05PM 37.6167 -121.8667 258° West 274 315 6,200 -960 Descending Northern Cal TRACON
10:06PM 37.6000 -121.9500 256° West 234 269 5,100 -1,320 Descending Northern Cal TRACON
10:07PM 37.6000 -122.0333 270° West 222 255 3,500 -1,200 Descending Northern Cal TRACON
10:08PM 37.6167 -122.0833 293° West 188 216 2,800 -960 Descending Northern Cal TRACON
10:09PM 37.6500 -122.1333 310° West 141 162 1,700 -900 Descending Northern Cal TRACON
10:10PM 37.6667 -122.1667 302° West 127 146 1,000 -660 Descending Northern Cal TRACON
10:11PM 37.6833 -122.2000 302° West 128 147 400 -600 Descending Northern Cal TRACON
10:14PM 37.7167 -122.2167 270° West  Level FlightAware Approximate